Time;durP1;ratioP1;P1;durP2;ratioP2;P2;SDS_P1;SDS_P2;PMS_P1;PMS_P2;Temp;Humidity;BMP_temperature;BMP_pressure;BME280_temperature;BME280_humidity;BME280_pressure;Samples;Min_cycle;Max_cycle;Signal;HPM_P1;HPM_P2
2021/04/11 00:00:28;;;;;;;4.25;2.65;;;;;;;11.08;50.02;100280.47;3623682;39;20359;-73
2021/04/11 00:02:56;;;;;;;4.72;3.13;;;;;;;11.07;50.01;100286.94;3619927;39;20642;-73
2021/04/11 00:05:26;;;;;;;4.45;2.85;;;;;;;11.08;49.92;100280.47;3627289;39;20059;-72
2021/04/11 00:07:54;;;;;;;5.45;3.08;;;;;;;11.07;50.09;100281.47;3621804;39;20057;-73
2021/04/11 00:10:24;;;;;;;5.70;3.30;;;;;;;11.07;49.96;100284.22;3625009;39;20051;-73
2021/04/11 00:12:51;;;;;;;4.75;2.50;;;;;;;11.06;49.87;100277.88;3625353;39;20050;-73
2021/04/11 00:15:23;;;;;;;5.65;3.22;;;;;;;11.07;50.08;100278.72;3619774;39;20292;-71
2021/04/11 00:17:51;;;;;;;4.40;3.00;;;;;;;11.07;50.00;100276.00;3624807;39;20125;-73
2021/04/11 00:20:20;;;;;;;5.78;3.20;;;;;;;11.05;50.24;100270.66;3623922;39;20301;-73
2021/04/11 00:22:47;;;;;;;5.35;3.10;;;;;;;11.06;50.23;100274.25;3622283;39;20461;-73
2021/04/11 00:25:19;;;;;;;4.85;3.00;;;;;;;11.06;50.03;100266.06;3631486;39;20103;-73
2021/04/11 00:27:46;;;;;;;4.78;3.00;;;;;;;11.05;50.10;100267.06;3624219;39;20068;-74
2021/04/11 00:30:15;;;;;;;5.47;2.90;;;;;;;11.04;49.99;100265.34;3620732;39;20103;-73
2021/04/11 00:32:42;;;;;;;4.90;2.83;;;;;;;11.04;50.35;100268.94;3623745;39;20043;-73
2021/04/11 00:35:12;;;;;;;4.72;3.13;;;;;;;11.06;50.53;100257.84;3622093;39;20046;-74
2021/04/11 00:37:39;;;;;;;5.35;3.05;;;;;;;11.04;50.23;100260.72;3619946;39;20054;-73
2021/04/11 00:40:13;;;;;;;4.93;3.20;;;;;;;11.06;50.39;100260.59;3622052;39;20051;-74
2021/04/11 00:42:47;;;;;;;4.97;2.90;;;;;;;11.06;50.14;100257.84;3623573;39;20043;-74
2021/04/11 00:45:24;;;;;;;5.30;2.92;;;;;;;11.05;50.64;100250.63;3619758;39;20129;-73
2021/04/11 00:47:53;;;;;;;5.88;2.95;;;;;;;11.04;50.41;100254.38;3623862;39;20055;-73
2021/04/11 00:50:23;;;;;;;5.22;2.95;;;;;;;11.05;50.34;100253.38;3611035;39;20062;-73
2021/04/11 00:52:51;;;;;;;5.65;3.20;;;;;;;11.05;50.00;100243.28;3622971;39;20078;-73
2021/04/11 00:55:23;;;;;;;5.15;3.17;;;;;;;11.06;50.48;100246.91;3628720;39;20322;-75
2021/04/11 00:57:54;;;;;;;4.03;2.70;;;;;;;11.05;50.36;100246.03;3619574;39;20075;-73
2021/04/11 01:00:26;;;;;;;4.22;2.67;;;;;;;11.07;50.56;100248.63;3624102;39;20067;-73
2021/04/11 01:02:54;;;;;;;5.70;2.88;;;;;;;11.04;50.15;100235.22;3622071;39;20047;-74
2021/04/11 01:05:25;;;;;;;4.45;2.65;;;;;;;11.07;50.18;100234.94;3625205;39;20318;-73
2021/04/11 01:07:54;;;;;;;5.75;2.65;;;;;;;11.06;50.49;100236.81;3625941;39;20047;-73
2021/04/11 01:10:27;;;;;;;5.65;2.78;;;;;;;11.08;50.63;100236.66;3628067;39;20076;-74
2021/04/11 01:12:54;;;;;;;5.07;2.78;;;;;;;11.03;50.21;100228.88;3627953;39;20119;-74
2021/04/11 01:15:25;;;;;;;4.65;2.78;;;;;;;11.07;50.22;100235.81;3625925;39;20142;-74
2021/04/11 01:17:53;;;;;;;5.55;3.00;;;;;;;11.07;50.25;100240.41;3623181;39;20067;-73
2021/04/11 01:20:23;;;;;;;4.22;2.65;;;;;;;11.07;50.25;100227.59;3623063;39;20057;-73
2021/04/11 01:23:27;;;;;;;5.60;2.92;;;;;;;11.08;50.47;100221.09;3626497;39;20042;-73
2021/04/11 01:25:58;;;;;;;4.93;2.70;;;;;;;11.03;50.35;100220.69;3625614;39;20047;-73
2021/04/11 01:28:29;;;;;;;3.80;2.70;;;;;;;11.06;50.62;100223.13;3628671;39;20047;-73
2021/04/11 01:30:59;;;;;;;4.68;3.05;;;;;;;11.06;50.28;100223.13;3621484;39;20208;-73
2021/04/11 01:33:28;;;;;;;4.00;2.70;;;;;;;11.06;50.51;100222.25;3620729;39;20070;-73
2021/04/11 01:35:58;;;;;;;5.68;2.72;;;;;;;11.06;50.29;100219.53;3620382;39;20069;-73
2021/04/11 01:38:30;;;;;;;4.05;2.60;;;;;;;11.04;50.33;100207.84;3622657;39;20053;-73
2021/04/11 01:41:06;;;;;;;4.88;2.85;;;;;;;11.08;50.54;100217.50;3621748;39;20070;-75
2021/04/11 01:43:37;;;;;;;4.18;2.55;;;;;;;11.06;50.08;100211.31;3620734;39;20051;-73
2021/04/11 01:46:07;;;;;;;5.47;2.90;;;;;;;11.06;50.41;100209.44;3624466;39;20042;-73
2021/04/11 01:48:35;;;;;;;5.28;2.88;;;;;;;11.06;50.41;100209.44;3625580;39;20421;-73
2021/04/11 01:51:06;;;;;;;4.35;2.95;;;;;;;11.08;50.33;100214.78;3624162;39;20060;-73
2021/04/11 01:53:35;;;;;;;5.00;2.78;;;;;;;11.07;50.49;100215.78;3627481;39;20049;-73
2021/04/11 01:56:05;;;;;;;4.82;2.65;;;;;;;11.09;50.45;100208.28;3625574;39;20392;-73
2021/04/11 01:58:34;;;;;;;3.95;2.95;;;;;;;11.07;50.43;100204.84;3626724;39;20047;-73
2021/04/11 02:01:19;;;;;;;5.05;3.08;;;;;;;11.08;50.55;100207.41;3621781;39;20043;-74
2021/04/11 02:03:53;;;;;;;4.97;2.63;;;;;;;11.10;50.61;100202.66;3619029;39;20062;-73
2021/04/11 02:06:23;;;;;;;4.75;3.10;;;;;;;11.06;50.22;100198.50;3623060;39;20446;-73
2021/04/11 02:09:09;;;;;;;4.50;2.67;;;;;;;11.08;50.61;100192.88;3624146;39;20051;-73
2021/04/11 02:11:51;;;;;;;5.07;3.10;;;;;;;11.09;50.32;100195.47;3625438;39;20058;-72
2021/04/11 02:14:19;;;;;;;4.45;2.65;;;;;;;11.08;50.13;100188.25;3623833;39;20046;-73
2021/04/11 02:16:47;;;;;;;5.05;2.95;;;;;;;11.10;50.45;100193.59;3623499;39;20127;-72
2021/04/11 02:19:18;;;;;;;5.90;3.67;;;;;;;11.11;50.43;100198.06;3625354;39;20050;-73
2021/04/11 02:21:52;;;;;;;4.05;2.80;;;;;;;11.10;50.61;100216.34;3622859;39;20074;-73
2021/04/11 02:24:19;;;;;;;;;;;;;;;10.81;51.29;100210.94;3625913;39;20042;-73
2021/04/11 02:26:47;;;;;;;5.15;4.05;;;;;;;11.03;50.23;100217.94;3624947;39;19928;-73
2021/04/11 02:29:18;;;;;;;5.93;4.32;;;;;;;11.09;50.31;100232.91;3624081;39;20039;-73
2021/04/11 02:31:46;;;;;;;6.53;4.65;;;;;;;11.03;50.16;100236.28;3625024;39;20050;-73
2021/04/11 02:34:25;;;;;;;7.07;5.07;;;;;;;11.05;50.12;100228.75;3622883;39;20139;-72
2021/04/11 02:37:00;;;;;;;8.95;5.22;;;;;;;11.00;49.93;100231.94;3627249;39;20473;-73
2021/04/11 02:39:34;;;;;;;8.25;5.57;;;;;;;10.98;49.53;100227.63;3621127;39;20168;-73
2021/04/11 02:42:07;;;;;;;7.40;5.30;;;;;;;10.97;49.79;100225.91;3622677;39;20484;-73
2021/04/11 02:44:36;;;;;;;7.78;5.28;;;;;;;10.90;49.55;100229.25;3623391;39;20038;-73
2021/04/11 02:47:05;;;;;;;7.38;4.97;;;;;;;10.88;49.52;100239.47;3623129;39;20340;-73
2021/04/11 02:49:34;;;;;;;7.25;4.93;;;;;;;10.85;49.21;100269.88;3626751;39;20372;-73
2021/04/11 02:52:06;;;;;;;6.95;4.78;;;;;;;10.83;49.46;100260.06;3624138;39;20146;-73
2021/04/11 02:54:38;;;;;;;6.82;4.70;;;;;;;10.78;49.18;100271.44;3629635;39;20051;-73
2021/04/11 02:57:16;;;;;;;6.45;4.20;;;;;;;10.73;49.09;100272.91;3621619;39;20090;-73
2021/04/11 02:59:46;;;;;;;5.75;4.05;;;;;;;10.69;48.81;100275.09;3624902;39;20066;-73
2021/04/11 03:02:15;;;;;;;5.63;3.60;;;;;;;10.65;48.93;100281.84;3623576;39;20051;-73
2021/04/11 03:04:53;;;;;;;5.78;4.00;;;;;;;10.59;48.87;100297.97;3620564;39;20050;-73
2021/04/11 03:07:24;;;;;;;5.20;3.20;;;;;;;10.54;48.62;100287.47;3621853;39;20051;-73
2021/04/11 03:09:59;;;;;;;3.80;2.42;;;;;;;10.50;48.38;100286.91;3627483;39;20046;-72
2021/04/11 03:12:33;;;;;;;3.08;2.00;;;;;;;10.44;48.27;100292.09;3626442;39;20051;-72
2021/04/11 03:15:06;;;;;;;3.20;2.00;;;;;;;10.39;48.17;100291.66;3625388;39;20138;-71
2021/04/11 03:17:34;;;;;;;3.10;1.80;;;;;;;10.30;48.10;100296.13;3623062;39;20031;-73
2021/04/11 03:20:08;;;;;;;2.78;1.75;;;;;;;10.27;48.09;100301.03;3618986;39;20035;-73
2021/04/11 03:22:37;;;;;;;3.15;1.70;;;;;;;10.19;48.18;100307.22;3622255;39;20035;-73
2021/04/11 03:25:13;;;;;;;2.55;1.50;;;;;;;10.14;48.11;100310.38;3625227;39;20058;-72
2021/04/11 03:27:48;;;;;;;3.60;2.30;;;;;;;10.08;48.23;100321.00;3626344;39;20130;-74
2021/04/11 03:30:23;;;;;;;2.95;2.00;;;;;;;10.05;48.20;100326.75;3617045;39;20128;-73
2021/04/11 03:32:54;;;;;;;2.95;2.10;;;;;;;9.99;48.06;100322.72;3624819;39;20066;-73
2021/04/11 03:35:27;;;;;;;3.88;2.25;;;;;;;9.93;48.28;100331.50;3626325;39;20070;-72
2021/04/11 03:38:01;;;;;;;3.60;2.33;;;;;;;9.90;48.20;100329.03;3626781;39;20053;-73
2021/04/11 03:40:35;;;;;;;4.00;2.63;;;;;;;9.86;48.03;100330.34;3625537;39;20043;-72
2021/04/11 03:43:10;;;;;;;3.60;2.40;;;;;;;9.80;48.21;100332.75;3627343;39;20050;-73
2021/04/11 03:45:41;;;;;;;3.17;1.98;;;;;;;9.75;47.84;100334.03;3620525;39;20429;-73
2021/04/11 03:48:18;;;;;;;4.10;2.08;;;;;;;9.72;47.95;100323.38;3626211;39;20442;-73
2021/04/11 03:50:50;;;;;;;3.60;2.30;;;;;;;9.67;47.97;100331.13;3623654;39;20050;-73
2021/04/11 03:53:25;;;;;;;2.97;2.10;;;;;;;9.61;47.91;100339.00;3623406;39;20489;-73
2021/04/11 03:56:01;;;;;;;3.80;2.42;;;;;;;9.56;47.71;100336.69;3627833;39;20204;-72
2021/04/11 03:58:38;;;;;;;3.28;2.00;;;;;;;9.54;48.00;100338.72;3626993;39;20081;-71
2021/04/11 04:01:17;;;;;;;3.00;1.90;;;;;;;9.49;48.04;100338.22;3626182;39;20071;-73
2021/04/11 04:03:47;;;;;;;3.05;1.52;;;;;;;9.44;47.96;100339.66;3624565;39;20050;-73
2021/04/11 04:06:21;;;;;;;3.08;1.80;;;;;;;9.44;47.82;100335.06;3626513;39;20072;-73
2021/04/11 04:08:49;;;;;;;3.13;1.90;;;;;;;9.38;47.79;100338.34;3620550;39;20430;-73
2021/04/11 04:11:46;;;;;;;3.33;1.90;;;;;;;9.37;47.23;100339.34;3625043;39;20139;-72
2021/04/11 04:14:24;;;;;;;2.90;1.80;;;;;;;9.29;47.40;100356.41;3627960;39;20070;-73
2021/04/11 04:17:05;;;;;;;2.67;1.67;;;;;;;9.29;47.59;100356.41;3626553;39;20355;-73
2021/04/11 04:19:50;;;;;;;2.97;1.80;;;;;;;9.23;47.60;100361.53;3627493;39;20295;-73
2021/04/11 04:22:35;;;;;;;2.83;1.70;;;;;;;9.19;47.94;100363.69;3618620;39;20287;-73
2021/04/11 04:25:30;;;;;;;3.00;1.75;;;;;;;9.16;47.19;100377.59;3628923;39;20039;-73
2021/04/11 04:28:14;;;;;;;3.25;1.70;;;;;;;9.11;47.25;100373.53;3627729;39;20058;-74
2021/04/11 04:30:55;;;;;;;2.65;1.70;;;;;;;9.07;47.10;100372.06;3624655;39;20063;-74
2021/04/11 04:33:44;;;;;;;2.60;1.50;;;;;;;9.05;47.65;100376.81;3624905;39;20063;-73
2021/04/11 04:36:27;;;;;;;2.38;1.50;;;;;;;9.00;46.87;100382.66;3622868;39;20061;-73
2021/04/11 04:39:06;;;;;;;2.33;1.50;;;;;;;8.95;46.99;100382.22;3626139;39;20062;-73
2021/04/11 04:41:41;;;;;;;2.67;1.67;;;;;;;8.92;47.18;100380.59;3621447;39;20086;-73
2021/04/11 04:44:27;;;;;;;2.85;1.80;;;;;;;8.88;47.08;100384.63;3621645;39;20119;-73
2021/04/11 04:47:04;;;;;;;2.50;1.75;;;;;;;8.83;46.98;100400.50;3624817;39;20054;-73
2021/04/11 04:49:53;;;;;;;2.45;1.60;;;;;;;8.81;47.19;100402.47;3622188;39;20050;-72
2021/04/11 04:52:30;;;;;;;2.88;1.80;;;;;;;8.77;46.99;100409.22;3624378;39;20036;-73
2021/04/11 04:55:04;;;;;;;2.92;1.80;;;;;;;8.75;47.12;100405.75;3627663;39;20585;-73
2021/04/11 04:57:37;;;;;;;2.55;1.80;;;;;;;8.73;46.81;100415.91;3625171;39;20391;-73
2021/04/11 05:00:13;;;;;;;3.30;2.00;;;;;;;8.68;46.99;100414.59;3623900;39;20086;-73
2021/04/11 05:03:02;;;;;;;2.60;1.80;;;;;;;8.63;46.42;100425.91;3624672;39;20035;-72
2021/04/11 05:05:40;;;;;;;2.80;1.95;;;;;;;8.60;46.59;100428.88;3626365;39;20092;-73
2021/04/11 05:08:12;;;;;;;4.00;2.38;;;;;;;8.56;46.36;100441.88;3622699;39;20423;-73
2021/04/11 05:10:44;;;;;;;5.03;2.80;;;;;;;8.51;46.78;100449.59;3612492;39;20057;-73
2021/04/11 05:13:32;;;;;;;4.38;2.75;;;;;;;8.50;46.93;100447.00;3623965;39;20030;-74
2021/04/11 05:16:08;;;;;;;4.13;2.88;;;;;;;8.46;46.60;100443.69;3625854;39;20043;-74
2021/04/11 05:18:44;;;;;;;4.28;2.72;;;;;;;8.43;46.87;100446.66;3624980;39;20058;-74
2021/04/11 05:21:46;;;;;;;3.72;2.58;;;;;;;8.40;47.13;100454.16;3616100;39;20092;-73
2021/04/11 05:24:18;;;;;;;4.00;2.65;;;;;;;8.38;46.99;100457.06;3622883;39;20425;-72
2021/04/11 05:26:50;;;;;;;3.83;2.70;;;;;;;8.34;47.04;100460.16;3626831;39;20054;-72
2021/04/11 05:29:33;;;;;;;3.78;2.55;;;;;;;8.34;46.33;100457.41;3619302;39;20038;-72
2021/04/11 05:32:01;;;;;;;3.83;2.80;;;;;;;8.30;46.78;100465.00;3627746;39;20042;-73
2021/04/11 05:34:36;;;;;;;4.20;2.95;;;;;;;8.27;46.85;100470.69;3625322;39;20059;-72
2021/04/11 05:37:23;;;;;;;3.88;2.78;;;;;;;8.26;46.56;100467.09;3621592;39;20047;-72
2021/04/11 05:40:03;;;;;;;4.38;3.13;;;;;;;8.19;46.82;100481.38;3621611;39;20054;-73
2021/04/11 05:42:41;;;;;;;4.22;2.80;;;;;;;8.19;46.89;100484.09;3625138;39;20047;-73
2021/04/11 05:45:15;;;;;;;3.90;2.85;;;;;;;8.18;46.99;100485.06;3621451;39;20051;-73
2021/04/11 05:48:01;;;;;;;4.72;2.70;;;;;;;8.16;47.32;100496.09;3619237;39;20075;-73
2021/04/11 05:50:36;;;;;;;4.15;2.92;;;;;;;8.13;47.09;100493.66;3620304;39;20074;-72
2021/04/11 05:53:11;;;;;;;4.97;3.30;;;;;;;8.13;47.25;100481.88;3622664;39;20058;-72
2021/04/11 05:55:43;;;;;;;4.93;3.72;;;;;;;8.11;46.94;100486.56;3630682;39;20138;-73
2021/04/11 05:58:15;;;;;;;5.07;3.50;;;;;;;8.09;47.21;100491.28;3619686;39;20063;-72
2021/04/11 06:00:46;;;;;;;4.80;3.35;;;;;;;8.11;47.14;100508.38;3620558;39;20423;-73
2021/04/11 06:03:23;;;;;;;4.38;3.13;;;;;;;8.10;47.24;100533.88;3622899;39;20042;-74
2021/04/11 06:06:00;;;;;;;5.30;3.72;;;;;;;8.10;47.23;100540.19;3629057;39;20090;-73
2021/04/11 06:08:36;;;;;;;5.47;3.85;;;;;;;8.10;46.95;100537.47;3623346;39;20042;-73
2021/04/11 06:11:11;;;;;;;5.82;4.18;;;;;;;8.09;47.27;100533.00;3620254;39;20047;-73
2021/04/11 06:13:58;;;;;;;5.60;3.80;;;;;;;8.08;46.95;100534.00;3628099;39;20027;-74
2021/04/11 06:16:28;;;;;;;5.25;3.83;;;;;;;8.08;47.11;100546.75;3623096;39;20078;-73
2021/04/11 06:19:01;;;;;;;5.55;3.67;;;;;;;8.07;46.82;100547.75;3626242;39;20388;-73
2021/04/11 06:21:51;;;;;;;5.80;3.72;;;;;;;8.06;47.31;100548.75;3622028;39;20142;-73
2021/04/11 06:24:29;;;;;;;5.90;3.95;;;;;;;8.05;46.98;100552.47;3625755;39;20050;-73
2021/04/11 06:27:16;;;;;;;5.50;3.72;;;;;;;8.04;46.91;100564.34;3626707;39;20039;-73
2021/04/11 06:29:54;;;;;;;4.97;3.55;;;;;;;8.03;46.95;100568.06;3626302;39;20059;-73
2021/04/11 06:32:23;;;;;;;4.90;3.42;;;;;;;8.01;47.18;100559.13;3620965;39;20058;-73
2021/04/11 06:34:59;;;;;;;4.80;3.25;;;;;;;8.04;47.44;100567.94;3622620;39;20055;-73
2021/04/11 06:37:29;;;;;;;5.55;3.50;;;;;;;8.03;47.26;100566.22;3623411;39;20046;-73
2021/04/11 06:40:16;;;;;;;5.30;3.30;;;;;;;8.02;47.24;100558.16;3623323;39;20110;-73
2021/04/11 06:43:05;;;;;;;6.07;3.40;;;;;;;8.03;46.94;100563.47;3624804;39;20128;-73
2021/04/11 06:45:42;;;;;;;4.18;2.70;;;;;;;8.02;47.01;100578.09;3621751;39;20407;-73
2021/04/11 06:48:37;;;;;;;4.15;2.75;;;;;;;8.04;47.41;100588.88;3621442;39;20062;-73
2021/04/11 06:51:54;;;;;;;5.28;2.90;;;;;;;7.99;46.94;100596.53;3618805;39;20075;-72
2021/04/11 06:54:52;;;;;;;4.70;3.20;;;;;;;7.97;46.45;100583.06;3629096;39;20053;-73
2021/04/11 06:57:45;;;;;;;5.53;3.20;;;;;;;7.97;47.09;100595.78;3622937;39;20053;-73
2021/04/11 07:00:26;;;;;;;4.43;3.10;;;;;;;7.96;46.51;100603.09;3625447;39;20107;-74
2021/04/11 07:03:35;;;;;;;4.38;2.67;;;;;;;7.91;46.75;100604.44;3625319;39;20030;-72
2021/04/11 07:06:48;;;;;;;4.00;2.75;;;;;;;7.87;46.94;100599.25;3622031;39;20047;-73
2021/04/11 07:09:51;;;;;;;3.78;2.70;;;;;;;7.88;46.68;100597.41;3619033;39;20312;-73
2021/04/11 07:12:46;;;;;;;4.80;3.00;;;;;;;7.88;46.62;100603.72;3622823;39;20057;-73
2021/04/11 07:15:37;;;;;;;4.90;2.58;;;;;;;7.87;46.86;100596.53;3617937;39;20078;-73
2021/04/11 07:18:53;;;;;;;3.83;2.53;;;;;;;7.82;47.21;100585.09;3620871;39;20051;-72
2021/04/11 07:21:45;;;;;;;3.85;2.53;;;;;;;7.86;46.84;100585.75;3621298;39;20072;-73
2021/04/11 07:24:46;;;;;;;3.55;1.92;;;;;;;7.86;47.18;100593.91;3630182;39;20161;-70
2021/04/11 07:27:23;;;;;;;3.72;2.30;;;;;;;7.86;47.15;100605.69;3626104;39;20043;-71
2021/04/11 07:30:09;;;;;;;3.85;2.13;;;;;;;7.89;46.86;100615.47;3620000;39;20639;-73
2021/04/11 07:33:13;;;;;;;4.10;2.40;;;;;;;7.88;46.84;100609.16;3620236;39;20049;-73
2021/04/11 07:35:54;;;;;;;3.72;2.13;;;;;;;7.89;47.10;100607.31;3624918;39;20288;-74
2021/04/11 07:38:36;;;;;;;3.53;2.40;;;;;;;7.93;47.29;100618.81;3623645;39;20051;-73
2021/04/11 07:41:20;;;;;;;4.75;2.63;;;;;;;7.93;46.79;100619.66;3624280;39;20079;-73
2021/04/11 07:44:00;;;;;;;4.00;2.47;;;;;;;7.94;47.11;100620.53;3628320;39;20046;-73
2021/04/11 07:46:46;;;;;;;4.05;2.70;;;;;;;7.94;46.90;100623.25;3624346;39;20042;-73
2021/04/11 07:49:46;;;;;;;3.97;2.67;;;;;;;7.90;46.76;100624.50;3621729;39;20379;-73
2021/04/11 07:52:44;;;;;;;4.65;2.63;;;;;;;7.91;46.59;100631.66;3626477;39;20395;-73
2021/04/11 07:55:24;;;;;;;4.13;2.30;;;;;;;7.91;47.00;100637.97;3620606;39;20050;-73
2021/04/11 07:58:19;;;;;;;4.50;2.30;;;;;;;7.88;46.77;100644.56;3623819;39;20439;-73
2021/04/11 08:01:12;;;;;;;4.35;2.70;;;;;;;7.88;46.31;100646.41;3626699;39;20050;-73
2021/04/11 08:04:13;;;;;;;3.63;2.63;;;;;;;7.86;46.97;100653.84;3624178;39;20395;-73
2021/04/11 08:06:59;;;;;;;4.55;2.60;;;;;;;7.85;46.92;100661.13;3620595;39;20059;-73
2021/04/11 08:09:38;;;;;;;3.63;2.35;;;;;;;7.87;46.63;100661.88;3619860;39;20043;-74
2021/04/11 08:12:31;;;;;;;4.10;2.50;;;;;;;7.85;46.83;100669.31;3621516;39;20047;-72
2021/04/11 08:15:15;;;;;;;4.32;2.42;;;;;;;7.87;46.59;100672.78;3624364;39;20051;-72
2021/04/11 08:18:00;;;;;;;5.07;2.90;;;;;;;7.87;46.62;100675.50;3623402;39;20069;-73
2021/04/11 08:20:58;;;;;;;4.50;2.95;;;;;;;7.87;46.54;100678.22;3623132;39;20047;-73
2021/04/11 08:23:55;;;;;;;3.88;2.42;;;;;;;7.86;46.75;100679.22;3625339;39;20074;-73
2021/04/11 08:26:52;;;;;;;3.35;2.47;;;;;;;7.83;46.56;100684.00;3623356;39;20055;-73
2021/04/11 08:29:41;;;;;;;4.07;2.78;;;;;;;7.84;46.86;100700.25;3622069;39;20058;-73
2021/04/11 08:32:46;;;;;;;4.05;2.70;;;;;;;7.81;46.13;100699.63;3624059;39;20071;-73
2021/04/11 08:35:33;;;;;;;4.30;2.78;;;;;;;7.80;45.69;100698.75;3627318;39;20049;-73
2021/04/11 08:38:32;;;;;;;3.97;2.80;;;;;;;7.77;46.13;100700.84;3621911;39;20054;-73
2021/04/11 08:41:13;;;;;;;4.07;2.80;;;;;;;7.75;46.42;100706.41;3622967;39;20385;-73
2021/04/11 08:44:06;;;;;;;4.25;3.00;;;;;;;7.72;46.09;100717.53;3624183;39;20050;-73
2021/04/11 08:46:49;;;;;;;4.57;3.10;;;;;;;7.69;46.14;100720.47;3619589;39;20062;-74
2021/04/11 08:49:23;;;;;;;4.22;2.80;;;;;;;7.66;46.45;100731.59;3624400;39;20039;-73
2021/04/11 08:52:01;;;;;;;4.93;3.00;;;;;;;7.65;45.96;100727.16;3622441;39;20131;-74
2021/04/11 08:54:50;;;;;;;4.85;3.20;;;;;;;7.63;46.05;100731.84;3627425;39;20069;-73
2021/04/11 08:57:37;;;;;;;4.55;3.00;;;;;;;7.60;46.41;100733.94;3620303;39;20058;-72
2021/04/11 09:00:14;;;;;;;3.80;2.60;;;;;;;7.58;46.31;100734.03;3623924;39;20104;-73
2021/04/11 09:03:02;;;;;;;3.75;2.38;;;;;;;7.57;46.47;100740.47;3623880;39;20050;-72
2021/04/11 09:05:37;;;;;;;3.28;2.30;;;;;;;7.54;46.38;100737.13;3618805;39;20054;-72
2021/04/11 09:08:15;;;;;;;4.68;2.75;;;;;;;7.53;45.96;100740.81;3618144;39;20051;-74
2021/04/11 09:10:54;;;;;;;3.63;2.38;;;;;;;7.50;46.04;100737.34;3624394;39;20286;-73
2021/04/11 09:13:33;;;;;;;3.40;2.10;;;;;;;7.47;46.51;100751.19;3623654;39;20059;-72
2021/04/11 09:16:11;;;;;;;4.03;2.15;;;;;;;7.47;46.44;100747.59;3623259;39;20047;-72
2021/04/11 09:18:54;;;;;;;3.78;2.30;;;;;;;7.46;46.74;100749.47;3622437;39;20389;-72
2021/04/11 09:21:47;;;;;;;3.60;2.47;;;;;;;7.44;46.66;100754.13;3624770;39;20143;-71
2021/04/11 09:24:20;;;;;;;3.78;2.58;;;;;;;7.42;46.71;100764.25;3624503;39;20407;-72
2021/04/11 09:27:21;;;;;;;4.00;2.72;;;;;;;7.45;46.52;100765.91;3626081;39;20027;-72
2021/04/11 09:30:02;;;;;;;3.45;2.25;;;;;;;7.44;46.39;100769.59;3624595;39;20292;-72
2021/04/11 09:33:06;;;;;;;3.85;2.10;;;;;;;7.43;46.51;100773.31;3622256;39;20315;-72
2021/04/11 09:35:43;;;;;;;2.25;1.67;;;;;;;7.42;46.77;100772.44;3622208;39;20046;-72
2021/04/11 09:38:36;;;;;;;3.65;2.10;;;;;;;7.40;46.70;100782.59;3623832;39;20047;-73
2021/04/11 09:41:29;;;;;;;2.28;1.55;;;;;;;7.39;46.39;100780.84;3624285;39;20047;-72
2021/04/11 09:44:32;;;;;;;3.13;1.67;;;;;;;7.36;46.84;100791.94;3622315;39;20306;-73
2021/04/11 09:47:30;;;;;;;4.10;2.03;;;;;;;7.36;46.67;100796.50;3620113;39;20082;-73
2021/04/11 09:50:13;;;;;;;3.88;2.55;;;;;;;7.40;46.63;100798.03;3624428;39;20059;-74
2021/04/11 09:53:21;;;;;;;3.63;2.38;;;;;;;7.35;46.58;100798.38;3626927;39;20388;-73
2021/04/11 09:56:00;;;;;;;4.60;3.15;;;;;;;7.38;46.74;100792.72;3624721;39;20047;-74
2021/04/11 09:58:51;;;;;;;4.22;2.80;;;;;;;7.37;46.80;100796.41;3624848;39;20293;-73
2021/04/11 10:01:27;;;;;;;4.90;2.88;;;;;;;7.36;46.94;100804.69;3626124;39;20056;-72
2021/04/11 10:04:12;;;;;;;5.22;3.55;;;;;;;7.37;46.89;100806.41;3618737;39;20311;-74
2021/04/11 10:07:04;;;;;;;5.65;3.75;;;;;;;7.35;46.71;100809.25;3626623;39;20116;-73
2021/04/11 10:09:59;;;;;;;4.32;3.25;;;;;;;7.33;47.02;100813.94;3621087;39;20319;-72
2021/04/11 10:12:48;;;;;;;4.68;3.42;;;;;;;7.37;47.15;100818.19;3613077;39;20419;-70
2021/04/11 10:15:24;;;;;;;5.30;3.95;;;;;;;7.37;47.00;100814.59;3624358;39;20043;-72
2021/04/11 10:18:24;;;;;;;5.32;4.30;;;;;;;7.37;46.62;100820.03;3623312;39;20171;-72
2021/04/11 10:21:03;;;;;;;4.97;3.28;;;;;;;7.39;46.91;100818.06;3614808;39;20118;-71
2021/04/11 10:23:48;;;;;;;5.25;3.17;;;;;;;7.40;46.94;100822.53;3620013;39;20039;-70
2021/04/11 10:26:22;;;;;;;5.13;2.80;;;;;;;7.39;46.80;100826.22;3625273;39;20130;-71
2021/04/11 10:28:55;;;;;;;4.03;2.10;;;;;;;7.39;46.92;100831.69;3625160;39;20351;-71
2021/04/11 10:31:31;;;;;;;3.85;2.50;;;;;;;7.36;46.43;100829.16;3623150;39;20078;-71
2021/04/11 10:34:12;;;;;;;3.42;2.33;;;;;;;7.38;46.56;100843.53;3624743;39;20055;-72
2021/04/11 10:36:47;;;;;;;4.43;2.60;;;;;;;7.37;46.52;100849.97;3620781;39;20442;-71
2021/04/11 10:39:26;;;;;;;3.55;2.30;;;;;;;7.37;46.04;100863.56;3624619;39;20042;-73
2021/04/11 10:42:17;;;;;;;3.88;2.60;;;;;;;7.34;46.24;100856.50;3634863;22;20029;-71
2021/04/11 10:45:14;;;;;;;4.68;2.78;;;;;;;7.30;46.56;100860.44;3590914;40;20085;-70
2021/04/11 10:48:31;;;;;;;4.03;2.60;;;;;;;7.30;46.86;100870.44;3573612;40;20145;-72
2021/04/11 10:51:28;;;;;;;4.35;2.83;;;;;;;7.25;46.38;100862.59;3584578;40;20052;-73
2021/04/11 10:54:13;;;;;;;4.20;2.50;;;;;;;7.28;46.26;100866.94;3577440;40;20052;-72
2021/04/11 10:57:01;;;;;;;4.80;2.95;;;;;;;7.27;46.21;100871.53;3585523;40;20308;-71
2021/04/11 10:59:49;;;;;;;3.42;2.22;;;;;;;7.25;45.94;100869.88;3587707;40;20051;-72
2021/04/11 11:02:42;;;;;;;3.35;2.33;;;;;;;7.23;46.17;100863.72;3585997;40;20060;-71
2021/04/11 11:05:46;;;;;;;3.47;1.83;;;;;;;7.20;46.96;100869.34;3586905;40;20058;-71
2021/04/11 11:08:38;;;;;;;2.88;1.75;;;;;;;7.19;46.91;100879.38;3578644;40;20388;-71
2021/04/11 11:11:41;;;;;;;3.97;2.22;;;;;;;7.16;46.98;100881.47;3585843;40;20056;-70
2021/04/11 11:14:45;;;;;;;4.18;2.47;;;;;;;7.15;46.45;100888.75;3587287;40;20052;-71
2021/04/11 11:17:31;;;;;;;5.45;2.55;;;;;;;7.17;46.77;100894.06;3585847;40;20057;-71
2021/04/11 11:20:22;;;;;;;4.00;2.25;;;;;;;7.15;46.87;100898.75;3580220;40;20158;-71
2021/04/11 11:23:20;;;;;;;4.80;3.15;;;;;;;7.17;46.57;100899.50;3583347;40;20420;-70
2021/04/11 11:26:17;;;;;;;4.53;2.85;;;;;;;7.13;46.82;100912.47;3586519;40;20092;-70
2021/04/11 11:29:02;;;;;;;3.70;2.60;;;;;;;7.17;46.85;100921.25;3586739;40;20052;-69
2021/04/11 11:31:41;;;;;;;4.10;2.50;;;;;;;7.16;46.69;100923.09;3587261;40;20044;-71
2021/04/11 11:34:26;;;;;;;3.78;2.83;;;;;;;7.17;47.08;100923.97;3587615;40;20052;-71
2021/04/11 11:37:10;;;;;;;3.22;2.53;;;;;;;7.17;47.26;100918.53;3586999;40;20048;-70
2021/04/11 11:39:43;;;;;;;4.43;3.00;;;;;;;7.17;47.06;100929.41;3586799;40;20123;-70
2021/04/11 11:42:27;;;;;;;4.55;3.30;;;;;;;7.19;47.27;100935.63;3588544;40;20441;-71
2021/04/11 11:45:05;;;;;;;4.95;2.80;;;;;;;7.19;47.57;100922.91;3582109;40;20056;-72
2021/04/11 11:47:41;;;;;;;4.25;2.45;;;;;;;7.19;47.01;100928.34;3584697;40;20048;-72
2021/04/11 11:50:17;;;;;;;3.40;2.25;;;;;;;7.20;47.02;100940.97;3586681;40;20061;-72
2021/04/11 11:52:51;;;;;;;4.03;2.45;;;;;;;7.21;46.84;100940.00;3585412;40;20390;-72
2021/04/11 11:55:22;;;;;;;3.63;2.13;;;;;;;7.22;47.19;100944.47;3585402;40;20094;-71
2021/04/11 11:57:57;;;;;;;3.25;2.33;;;;;;;7.25;47.32;100946.06;3586394;40;20063;-70
2021/04/11 12:00:30;;;;;;;3.95;2.50;;;;;;;7.24;47.23;100947.91;3583987;40;20133;-71
2021/04/11 12:03:18;;;;;;;4.72;2.78;;;;;;;7.28;47.26;100952.19;3587443;40;20130;-71
2021/04/11 12:05:54;;;;;;;5.22;3.17;;;;;;;7.29;47.36;100959.38;3583682;40;20049;-72
2021/04/11 12:08:36;;;;;;;4.50;3.00;;;;;;;7.32;47.18;100969.16;3586528;40;20114;-71
2021/04/11 12:11:09;;;;;;;4.88;3.08;;;;;;;7.30;47.01;100969.28;3587805;40;20055;-72
2021/04/11 12:13:43;;;;;;;5.13;3.42;;;;;;;7.32;47.12;100964.59;3586776;40;20084;-71
2021/04/11 12:16:21;;;;;;;4.72;3.30;;;;;;;7.34;46.80;100969.91;3585489;40;20064;-71
2021/04/11 12:19:01;;;;;;;6.07;3.70;;;;;;;7.33;46.89;100974.47;3586820;40;20052;-72
2021/04/11 12:21:38;;;;;;;4.78;3.00;;;;;;;7.33;46.83;100985.38;3586691;40;20041;-71
2021/04/11 12:24:09;;;;;;;6.00;3.85;;;;;;;7.31;46.78;100981.03;3586328;40;20409;-71
2021/04/11 12:26:45;;;;;;;;;;;;;;;7.06;47.23;100976.44;3585343;40;20052;-71
2021/04/11 12:29:14;;;;;;;6.43;4.43;;;;;;;7.22;46.67;100973.50;3586286;40;19960;-71
2021/04/11 12:31:45;;;;;;;6.28;4.10;;;;;;;7.25;46.49;100976.00;3585434;40;20053;-71